createdAt,value
2022-08-24T00:00:14.526Z,56.17
2022-08-24T00:02:42.408Z,54.08
2022-08-24T00:05:14.874Z,46.97
2022-08-24T00:07:42.919Z,50.70
2022-08-24T00:10:11.502Z,49.58
2022-08-24T00:12:39.351Z,53.33
2022-08-24T00:15:07.766Z,54.78
2022-08-24T00:17:35.547Z,51.08
2022-08-24T00:20:05.086Z,46.75
2022-08-24T00:22:33.317Z,52.20
2022-08-24T00:25:01.025Z,51.53
2022-08-24T00:27:28.793Z,49.72
2022-08-24T00:29:56.650Z,48.27
2022-08-24T00:32:24.426Z,50.90
2022-08-24T00:34:59.198Z,45.08
2022-08-24T00:37:28.803Z,43.20
2022-08-24T00:39:57.374Z,45.35
2022-08-24T00:42:25.415Z,44.03
2022-08-24T00:44:53.242Z,39.80
2022-08-24T00:47:27.848Z,40.47
2022-08-24T00:49:56.625Z,38.95
2022-08-24T00:52:26.069Z,37.38
2022-08-24T00:54:55.246Z,37.90
2022-08-24T00:57:24.572Z,39.08
2022-08-24T00:59:57.024Z,40.17
2022-08-24T01:02:26.282Z,34.70
2022-08-24T01:04:55.116Z,35.00
2022-08-24T01:07:23.473Z,36.38
2022-08-24T01:09:52.588Z,39.72
2022-08-24T01:12:20.449Z,36.35
2022-08-24T01:14:48.165Z,35.05
2022-08-24T01:17:39.023Z,35.28
2022-08-24T01:20:08.685Z,39.40
2022-08-24T01:22:54.874Z,40.47
2022-08-24T01:25:23.322Z,33.22
2022-08-24T01:27:53.687Z,41.47
2022-08-24T01:30:29.340Z,34.75
2022-08-24T01:33:06.129Z,33.60
2022-08-24T01:35:34.251Z,35.65
2022-08-24T01:38:02.602Z,33.38
2022-08-24T01:40:34.642Z,35.13
2022-08-24T01:43:02.504Z,33.58
2022-08-24T01:45:30.963Z,30.23
2022-08-24T01:47:59.728Z,32.78
2022-08-24T01:50:28.794Z,35.92
2022-08-24T01:53:05.271Z,34.20
2022-08-24T01:55:33.692Z,35.30
2022-08-24T01:58:01.426Z,29.10
2022-08-24T02:00:29.235Z,30.70
2022-08-24T02:02:57.329Z,33.40
2022-08-24T02:05:25.398Z,29.02
2022-08-24T02:07:53.222Z,29.92
2022-08-24T02:10:22.015Z,30.37
2022-08-24T02:12:59.024Z,33.72
2022-08-24T02:15:27.579Z,37.40
2022-08-24T02:17:55.495Z,38.33
2022-08-24T02:20:23.483Z,36.17
2022-08-24T02:22:51.595Z,41.35
2022-08-24T02:25:19.459Z,37.47
2022-08-24T02:27:47.386Z,33.83
2022-08-24T02:30:15.893Z,34.97
2022-08-24T02:32:43.600Z,38.95
2022-08-24T02:35:11.435Z,36.30
2022-08-24T02:37:43.446Z,38.75
2022-08-24T02:40:12.597Z,40.72
2022-08-24T02:42:40.661Z,35.20
2022-08-24T02:45:08.690Z,34.47
2022-08-24T02:47:38.911Z,38.92
2022-08-24T02:50:07.964Z,36.88
2022-08-24T02:52:36.343Z,44.00
2022-08-24T02:55:04.248Z,37.55
2022-08-24T02:57:32.017Z,36.22
2022-08-24T02:59:59.954Z,36.23
2022-08-24T03:02:27.842Z,36.55
2022-08-24T03:04:56.099Z,33.33
2022-08-24T03:07:23.906Z,33.00
2022-08-24T03:09:51.646Z,31.65
2022-08-24T03:12:19.469Z,33.20
2022-08-24T03:14:47.215Z,29.35
2022-08-24T03:17:15.042Z,25.30
2022-08-24T03:19:42.776Z,32.95
2022-08-24T03:22:10.619Z,26.35
2022-08-24T03:24:38.533Z,31.33
2022-08-24T03:27:06.564Z,30.15
2022-08-24T03:29:36.374Z,29.80
2022-08-24T03:32:05.288Z,29.43
2022-08-24T03:34:33.068Z,29.73
2022-08-24T03:37:00.758Z,23.92
2022-08-24T03:39:28.659Z,29.70
2022-08-24T03:41:56.391Z,30.83
2022-08-24T03:44:25.943Z,27.75
2022-08-24T03:46:54.007Z,26.60
2022-08-24T03:49:22.036Z,24.43
2022-08-24T03:51:50.373Z,22.30
2022-08-24T03:54:18.298Z,33.00
2022-08-24T03:56:46.028Z,21.80
2022-08-24T03:59:17.699Z,28.38
2022-08-24T04:01:47.940Z,28.98
2022-08-24T04:04:15.800Z,31.88
2022-08-24T04:06:46.959Z,27.90
2022-08-24T04:09:14.922Z,26.85
2022-08-24T04:11:43.901Z,23.23
2022-08-24T04:14:23.763Z,23.70
2022-08-24T04:16:57.496Z,20.27
2022-08-24T04:19:28.090Z,22.70
2022-08-24T04:21:57.799Z,20.17
2022-08-24T04:24:25.835Z,20.95
2022-08-24T04:26:53.619Z,24.73
2022-08-24T04:29:21.444Z,26.20
2022-08-24T04:31:49.384Z,24.65
2022-08-24T04:34:17.587Z,21.67
2022-08-24T04:36:45.406Z,25.20
2022-08-24T04:39:13.379Z,26.30
2022-08-24T04:41:42.726Z,22.25
2022-08-24T04:44:10.576Z,27.58
2022-08-24T04:46:39.066Z,21.57
2022-08-24T04:49:08.158Z,21.00
2022-08-24T04:51:36.527Z,20.33
2022-08-24T04:54:04.841Z,24.00
2022-08-24T04:56:32.580Z,20.67
2022-08-24T04:59:00.475Z,19.80
2022-08-24T05:01:28.859Z,20.13
2022-08-24T05:03:56.686Z,22.80
2022-08-24T05:06:25.612Z,23.92
2022-08-24T05:08:53.451Z,24.58
2022-08-24T05:11:21.831Z,22.83
2022-08-24T05:13:49.642Z,20.23
2022-08-24T05:16:18.114Z,20.77
2022-08-24T05:18:46.059Z,19.90
2022-08-24T05:21:15.210Z,22.42
2022-08-24T05:23:43.850Z,20.73
2022-08-24T05:26:12.781Z,24.15
2022-08-24T05:28:40.634Z,21.07
2022-08-24T05:31:09.307Z,21.83
2022-08-24T05:33:37.063Z,22.88
2022-08-24T05:36:05.374Z,28.03
2022-08-24T05:38:35.983Z,25.30
2022-08-24T05:41:06.500Z,26.98
2022-08-24T05:43:34.318Z,24.30
2022-08-24T05:46:02.045Z,32.40
2022-08-24T05:48:29.880Z,33.17
2022-08-24T05:50:58.433Z,38.63
2022-08-24T05:53:26.306Z,42.50
2022-08-24T05:55:54.523Z,45.83
2022-08-24T05:58:23.175Z,39.70
2022-08-24T06:01:02.068Z,43.33
2022-08-24T06:03:29.735Z,45.67
2022-08-24T06:05:57.975Z,51.25
2022-08-24T06:08:25.681Z,45.92
2022-08-24T06:10:53.512Z,42.80
2022-08-24T06:13:21.394Z,43.80
2022-08-24T06:16:10.962Z,38.75
2022-08-24T06:18:37.055Z,41.47
2022-08-24T06:21:08.332Z,37.42
2022-08-24T06:23:36.398Z,37.40
2022-08-24T06:26:23.475Z,41.30
2022-08-24T06:28:52.237Z,37.40
2022-08-24T06:31:20.074Z,29.45
2022-08-24T06:33:48.115Z,32.95
2022-08-24T06:36:15.847Z,37.22
2022-08-24T06:38:47.763Z,36.13
2022-08-24T06:41:15.520Z,32.90
2022-08-24T06:43:43.217Z,33.60
2022-08-24T06:46:11.018Z,34.08
2022-08-24T06:48:38.744Z,29.88
2022-08-24T06:51:11.039Z,34.07
2022-08-24T06:53:38.798Z,33.08
2022-08-24T06:56:06.681Z,28.92
2022-08-24T06:58:36.042Z,30.70
2022-08-24T07:01:33.066Z,25.33
2022-08-24T07:04:00.806Z,27.80
2022-08-24T07:06:29.205Z,23.85
2022-08-24T07:08:57.371Z,28.03
2022-08-24T07:11:25.689Z,27.05
2022-08-24T07:13:53.370Z,22.17
2022-08-24T07:16:21.658Z,21.50
2022-08-24T07:18:50.722Z,22.95
2022-08-24T07:21:21.365Z,20.23
2022-08-24T07:23:49.425Z,24.27
2022-08-24T07:26:21.951Z,16.90
2022-08-24T07:28:53.905Z,20.27
2022-08-24T07:31:21.616Z,20.00
2022-08-24T07:33:50.048Z,17.43
2022-08-24T07:36:22.570Z,19.77
2022-08-24T07:38:52.580Z,16.88
2022-08-24T07:41:40.397Z,12.97
2022-08-24T07:44:09.015Z,17.15
2022-08-24T07:46:36.752Z,13.73
2022-08-24T07:49:12.634Z,13.07
2022-08-24T07:51:48.749Z,10.98
2022-08-24T07:54:16.479Z,13.63
2022-08-24T07:56:44.127Z,13.70
2022-08-24T07:59:13.513Z,15.93
2022-08-24T08:01:42.370Z,12.25
2022-08-24T08:04:10.564Z,13.90
2022-08-24T08:06:38.311Z,18.63
2022-08-24T08:09:06.511Z,11.43
2022-08-24T08:11:35.297Z,11.52
2022-08-24T08:14:03.201Z,12.77
2022-08-24T08:16:30.949Z,16.63
2022-08-24T08:19:14.298Z,10.63
2022-08-24T08:22:03.804Z,14.40
2022-08-24T08:24:31.539Z,10.47
2022-08-24T08:26:59.427Z,9.68
2022-08-24T08:29:27.520Z,9.77
2022-08-24T08:31:55.184Z,9.63
2022-08-24T08:34:22.971Z,9.45
2022-08-24T08:36:50.705Z,8.77
2022-08-24T08:39:19.011Z,7.85
2022-08-24T08:42:05.520Z,7.57
2022-08-24T08:44:44.146Z,12.30
2022-08-24T08:47:14.926Z,10.85
2022-08-24T08:49:54.829Z,11.17
2022-08-24T08:52:29.341Z,12.18
2022-08-24T08:55:15.635Z,8.10
2022-08-24T08:57:47.007Z,8.40
2022-08-24T09:00:29.358Z,8.55
2022-08-24T09:03:06.297Z,12.75
2022-08-24T09:05:38.725Z,13.13
2022-08-24T09:08:18.854Z,10.50
2022-08-24T09:10:48.306Z,12.48
2022-08-24T09:13:24.875Z,12.95
2022-08-24T09:15:58.082Z,14.27
2022-08-24T09:18:28.811Z,11.30
2022-08-24T09:21:02.643Z,11.15
2022-08-24T09:23:36.085Z,10.53
2022-08-24T09:26:03.807Z,10.05
2022-08-24T09:28:37.015Z,7.32
2022-08-24T09:31:23.004Z,11.90
2022-08-24T09:33:54.012Z,9.20
2022-08-24T09:36:40.368Z,12.73
2022-08-24T09:39:09.811Z,8.63
2022-08-24T09:41:47.053Z,7.80
2022-08-24T09:44:32.819Z,9.57
2022-08-24T09:47:06.609Z,8.90
2022-08-24T09:49:34.447Z,10.10
2022-08-24T09:52:05.344Z,7.28
2022-08-24T09:54:35.811Z,6.60
2022-08-24T09:57:14.238Z,10.27
2022-08-24T09:59:49.178Z,10.67
2022-08-24T10:02:28.910Z,8.30
2022-08-24T10:04:56.754Z,9.05
2022-08-24T10:07:54.909Z,8.13
2022-08-24T10:10:25.829Z,7.78
2022-08-24T10:13:12.427Z,6.75
2022-08-24T10:15:46.203Z,9.13
2022-08-24T10:18:23.975Z,7.63
2022-08-24T10:21:08.880Z,7.43
2022-08-24T10:23:46.950Z,6.05
2022-08-24T10:26:21.200Z,6.13
2022-08-24T10:28:54.337Z,7.53
2022-08-24T10:31:25.614Z,7.47
2022-08-24T10:34:18.803Z,6.57
2022-08-24T10:36:58.692Z,8.52
2022-08-24T10:39:42.310Z,8.50
2022-08-24T10:42:40.955Z,6.23
2022-08-24T10:45:11.944Z,7.70
2022-08-24T10:47:39.755Z,7.70
2022-08-24T10:50:07.571Z,4.28
2022-08-24T10:52:53.809Z,12.00
2022-08-24T10:55:21.892Z,15.98
2022-08-24T10:57:53.909Z,18.15
2022-08-24T11:00:23.199Z,15.47
2022-08-24T11:02:51.276Z,16.25
2022-08-24T11:05:29.768Z,16.13
2022-08-24T11:08:05.283Z,19.80
2022-08-24T11:10:37.560Z,16.58
2022-08-24T11:13:20.494Z,17.75
2022-08-24T11:15:49.723Z,17.40
2022-08-24T11:18:17.461Z,16.23
2022-08-24T11:20:47.445Z,29.73
2022-08-24T11:23:29.622Z,15.13
2022-08-24T11:26:02.463Z,18.67
2022-08-24T11:28:34.183Z,17.08
2022-08-24T11:31:03.624Z,17.83
2022-08-24T11:33:35.448Z,14.80
2022-08-24T11:36:03.181Z,11.75
2022-08-24T11:38:32.170Z,14.68
2022-08-24T11:41:10.731Z,15.00
2022-08-24T11:43:44.810Z,15.93
2022-08-24T11:46:34.169Z,13.73
2022-08-24T11:49:13.083Z,21.15
2022-08-24T11:51:48.080Z,16.03
2022-08-24T11:54:24.777Z,13.60
2022-08-24T11:56:55.609Z,16.77
2022-08-24T11:59:29.067Z,14.27
2022-08-24T12:02:01.114Z,17.48
2022-08-24T12:04:31.948Z,13.75
2022-08-24T12:07:18.797Z,14.38
2022-08-24T12:09:49.566Z,14.73
2022-08-24T12:12:28.542Z,13.13
2022-08-24T12:15:15.041Z,13.07
2022-08-24T12:17:48.461Z,12.53
2022-08-24T12:20:37.144Z,16.70
2022-08-24T12:23:07.729Z,12.40
2022-08-24T12:25:55.010Z,12.27
2022-08-24T12:28:27.048Z,13.10
2022-08-24T12:30:58.184Z,14.07
2022-08-24T12:33:30.184Z,10.77
2022-08-24T12:35:59.780Z,10.80
2022-08-24T12:38:28.629Z,9.65
2022-08-24T12:41:03.350Z,13.98
2022-08-24T12:43:49.707Z,11.80
2022-08-24T12:46:17.522Z,13.60
2022-08-24T12:48:51.539Z,13.15
2022-08-24T12:51:24.389Z,9.87
2022-08-24T12:54:01.893Z,12.68
2022-08-24T12:56:29.693Z,13.13
2022-08-24T12:58:58.557Z,8.05
2022-08-24T13:01:33.803Z,15.40
2022-08-24T13:04:10.622Z,11.77
2022-08-24T13:06:42.511Z,10.80
2022-08-24T13:09:29.519Z,9.03
2022-08-24T13:11:58.866Z,7.85
2022-08-24T13:14:27.690Z,8.45
2022-08-24T13:16:58.313Z,12.30
2022-08-24T13:19:28.896Z,12.00
2022-08-24T13:22:02.550Z,11.50
2022-08-24T13:24:30.492Z,12.93
2022-08-24T13:26:58.200Z,11.00
2022-08-24T13:29:26.856Z,16.08
2022-08-24T13:31:54.840Z,12.65
2022-08-24T13:34:24.956Z,12.27
2022-08-24T13:37:02.362Z,13.07
2022-08-24T13:39:48.938Z,10.77
2022-08-24T13:42:19.683Z,13.03
2022-08-24T13:44:50.562Z,12.45
2022-08-24T13:47:22.776Z,11.05
2022-08-24T13:50:03.765Z,11.52
2022-08-24T13:52:47.210Z,12.30
2022-08-24T13:55:36.858Z,11.38
2022-08-24T13:58:04.944Z,8.27
2022-08-24T14:00:36.681Z,12.07
2022-08-24T14:03:07.222Z,10.90
2022-08-24T14:06:01.156Z,10.60
2022-08-24T14:08:32.430Z,14.87
2022-08-24T14:11:09.136Z,7.25
2022-08-24T14:13:55.414Z,13.75
2022-08-24T14:17:00.581Z,8.70
2022-08-24T14:19:36.103Z,11.83
2022-08-24T14:22:06.772Z,9.80
2022-08-24T14:24:42.595Z,6.28
2022-08-24T14:27:32.568Z,8.07
2022-08-24T14:30:26.418Z,11.85
2022-08-24T14:33:03.726Z,7.30
2022-08-24T14:35:36.443Z,8.10
2022-08-24T14:38:15.836Z,8.32
2022-08-24T14:41:03.252Z,6.32
2022-08-24T14:43:31.356Z,6.72
2022-08-24T14:46:06.285Z,6.30
2022-08-24T14:48:46.463Z,5.25
2022-08-24T14:51:21.257Z,10.55
2022-08-24T14:54:07.692Z,7.73
2022-08-24T14:56:54.544Z,4.82
2022-08-24T14:59:38.035Z,6.65
2022-08-24T15:02:28.340Z,6.10
2022-08-24T15:05:14.604Z,7.68
2022-08-24T15:07:42.359Z,8.60
2022-08-24T15:10:15.031Z,7.18
2022-08-24T15:12:50.335Z,8.27
2022-08-24T15:15:31.917Z,5.78
2022-08-24T15:18:07.911Z,5.22
2022-08-24T15:20:41.059Z,8.00
2022-08-24T15:23:17.057Z,6.93
2022-08-24T15:25:46.315Z,5.28
2022-08-24T15:28:23.341Z,8.20
2022-08-24T15:31:02.060Z,10.65
2022-08-24T15:33:30.206Z,6.97
2022-08-24T15:36:24.371Z,4.50
2022-08-24T15:38:52.209Z,9.10
2022-08-24T15:41:24.832Z,9.40
2022-08-24T15:44:05.972Z,5.10
2022-08-24T15:46:35.051Z,8.30
2022-08-24T15:49:04.588Z,5.93
2022-08-24T15:51:32.360Z,7.43
2022-08-24T15:54:00.040Z,6.83
2022-08-24T15:56:30.069Z,28.92
2022-08-24T15:59:07.124Z,6.63
2022-08-24T16:01:53.587Z,6.47
2022-08-24T16:04:41.116Z,12.50
2022-08-24T16:07:09.586Z,11.43
2022-08-24T16:09:38.083Z,10.38
2022-08-24T16:12:06.862Z,10.80
2022-08-24T16:14:41.323Z,8.75
2022-08-24T16:17:20.354Z,6.97
2022-08-24T16:19:51.807Z,7.90
2022-08-24T16:22:33.383Z,8.20
2022-08-24T16:25:12.507Z,8.25
2022-08-24T16:27:52.620Z,8.75
2022-08-24T16:30:24.685Z,10.20
2022-08-24T16:32:56.665Z,8.13
2022-08-24T16:35:24.891Z,9.95
2022-08-24T16:37:54.886Z,9.00
2022-08-24T16:40:22.826Z,12.27
2022-08-24T16:42:50.683Z,9.90
2022-08-24T16:45:19.384Z,9.73
2022-08-24T16:47:47.414Z,8.23
2022-08-24T16:50:16.806Z,8.88
2022-08-24T16:52:44.540Z,6.65
2022-08-24T16:55:14.455Z,10.82
2022-08-24T16:57:42.491Z,6.45
2022-08-24T17:00:15.417Z,7.88
2022-08-24T17:02:43.362Z,11.00
2022-08-24T17:05:11.518Z,7.50
2022-08-24T17:07:39.213Z,10.20
2022-08-24T17:10:07.919Z,12.00
2022-08-24T17:12:36.405Z,16.80
2022-08-24T17:15:05.435Z,11.68
2022-08-24T17:17:33.236Z,8.18
2022-08-24T17:20:01.794Z,9.70
2022-08-24T17:22:32.505Z,11.25
2022-08-24T17:25:00.295Z,10.10
2022-08-24T17:27:29.867Z,8.40
2022-08-24T17:29:59.363Z,11.85
2022-08-24T17:32:29.975Z,9.10
2022-08-24T17:34:58.211Z,10.73
2022-08-24T17:37:26.012Z,9.40
2022-08-24T17:39:55.052Z,13.85
2022-08-24T17:42:47.232Z,11.27
2022-08-24T17:45:10.793Z,13.95
2022-08-24T17:47:38.913Z,14.77
2022-08-24T17:50:10.427Z,12.63
2022-08-24T17:52:38.988Z,8.90
2022-08-24T17:55:07.864Z,9.10
2022-08-24T17:57:35.658Z,14.32
2022-08-24T18:00:03.842Z,12.37
2022-08-24T18:02:31.643Z,9.77
2022-08-24T18:04:59.752Z,11.43
2022-08-24T18:07:49.494Z,18.98
2022-08-24T18:10:17.033Z,16.17
2022-08-24T18:12:44.722Z,10.38
2022-08-24T18:15:12.641Z,11.38
2022-08-24T18:17:42.005Z,18.43
2022-08-24T18:20:12.545Z,12.13
2022-08-24T18:22:47.717Z,16.92
2022-08-24T18:25:22.999Z,16.40
2022-08-24T18:27:52.027Z,10.90
2022-08-24T18:30:27.598Z,11.80
2022-08-24T18:32:56.851Z,11.07
2022-08-24T18:35:24.609Z,12.15
2022-08-24T18:37:52.300Z,14.15
2022-08-24T18:40:21.128Z,14.40
2022-08-24T18:42:50.921Z,10.60
2022-08-24T18:45:18.724Z,13.73
2022-08-24T18:47:53.114Z,16.42
2022-08-24T18:50:21.612Z,13.17
2022-08-24T18:52:49.616Z,15.30
2022-08-24T18:55:17.652Z,13.27
2022-08-24T18:57:47.044Z,14.68
2022-08-24T19:00:16.651Z,13.98
2022-08-24T19:02:45.175Z,14.18
2022-08-24T19:05:15.424Z,12.85
2022-08-24T19:07:53.749Z,19.27
2022-08-24T19:10:23.608Z,22.00
2022-08-24T19:12:58.868Z,16.45
2022-08-24T19:15:34.664Z,19.80
2022-08-24T19:18:07.853Z,15.80
2022-08-24T19:20:35.717Z,12.90
2022-08-24T19:23:14.795Z,15.98
2022-08-24T19:25:44.114Z,14.30
2022-08-24T19:28:11.900Z,14.52
2022-08-24T19:30:42.304Z,16.33
2022-08-24T19:33:13.972Z,16.13
2022-08-24T19:35:43.329Z,24.92
2022-08-24T19:38:11.380Z,20.00
2022-08-24T19:40:39.296Z,18.97
2022-08-24T19:43:15.217Z,15.13
2022-08-24T19:46:02.686Z,16.67
2022-08-24T19:48:32.764Z,15.07
2022-08-24T19:51:02.372Z,13.55
2022-08-24T19:53:30.826Z,14.65
2022-08-24T19:55:58.548Z,14.30
2022-08-24T19:58:38.100Z,14.33
2022-08-24T20:01:06.724Z,14.07
2022-08-24T20:03:34.536Z,19.05
2022-08-24T20:06:02.314Z,15.47
2022-08-24T20:08:29.958Z,11.80
2022-08-24T20:11:00.634Z,13.88
2022-08-24T20:13:28.343Z,13.73
2022-08-24T20:15:56.578Z,14.65
2022-08-24T20:18:25.760Z,10.82
2022-08-24T20:20:53.527Z,11.00
2022-08-24T20:23:21.161Z,9.33
2022-08-24T20:25:51.154Z,13.27
2022-08-24T20:28:29.044Z,13.45
2022-08-24T20:30:57.266Z,13.03
2022-08-24T20:33:25.916Z,8.13
2022-08-24T20:35:53.648Z,9.85
2022-08-24T20:38:21.630Z,15.63
2022-08-24T20:40:49.415Z,11.27
2022-08-24T20:43:17.196Z,13.00
2022-08-24T20:45:45.571Z,12.60
2022-08-24T20:48:13.815Z,11.67
2022-08-24T20:50:44.952Z,12.25
2022-08-24T20:53:12.774Z,17.83
2022-08-24T20:55:40.585Z,16.13
2022-08-24T20:58:08.345Z,10.90
2022-08-24T21:00:36.910Z,13.48
2022-08-24T21:03:05.005Z,12.32
2022-08-24T21:05:32.857Z,16.10
2022-08-24T21:08:00.589Z,10.85
2022-08-24T21:10:28.279Z,10.93
2022-08-24T21:12:56.044Z,26.00
2022-08-24T21:15:23.792Z,13.25
2022-08-24T21:17:51.712Z,17.15
2022-08-24T21:20:20.358Z,10.10
2022-08-24T21:22:48.624Z,10.52
2022-08-24T21:25:17.601Z,11.55
2022-08-24T21:27:45.548Z,15.02
2022-08-24T21:30:22.442Z,15.02
2022-08-24T21:33:08.890Z,17.30
2022-08-24T21:35:36.821Z,15.35
2022-08-24T21:38:05.926Z,12.40
2022-08-24T21:40:36.332Z,16.27
2022-08-24T21:43:14.749Z,9.30
2022-08-24T21:45:42.839Z,14.00
2022-08-24T21:48:13.194Z,15.23
2022-08-24T21:50:40.939Z,15.15
2022-08-24T21:53:08.928Z,14.95
2022-08-24T21:55:36.888Z,11.93
2022-08-24T21:58:06.140Z,14.70
2022-08-24T22:00:35.666Z,12.20
2022-08-24T22:03:03.967Z,15.17
2022-08-24T22:05:31.919Z,12.75
2022-08-24T22:07:59.578Z,12.10
2022-08-24T22:10:27.339Z,13.33
2022-08-24T22:12:55.092Z,13.50
2022-08-24T22:15:23.964Z,17.20
2022-08-24T22:17:52.812Z,12.63
2022-08-24T22:20:23.474Z,11.35
2022-08-24T22:22:51.461Z,18.90
2022-08-24T22:25:19.183Z,19.05
2022-08-24T22:27:47.055Z,11.23
2022-08-24T22:30:15.135Z,16.23
2022-08-24T22:32:42.868Z,9.70
2022-08-24T22:35:10.724Z,12.13
2022-08-24T22:37:38.470Z,10.05
2022-08-24T22:40:07.070Z,10.98
2022-08-24T22:42:40.473Z,8.73
2022-08-24T22:45:09.260Z,11.05
2022-08-24T22:47:37.392Z,12.63
2022-08-24T22:50:06.375Z,12.38
2022-08-24T22:52:34.336Z,11.77
2022-08-24T22:55:02.220Z,10.77
2022-08-24T22:57:30.366Z,9.65
2022-08-24T22:59:58.330Z,9.43
2022-08-24T23:02:26.059Z,11.68
2022-08-24T23:04:53.927Z,7.05
2022-08-24T23:07:21.620Z,8.65
2022-08-24T23:09:49.406Z,10.65
2022-08-24T23:12:22.520Z,8.38
2022-08-24T23:14:51.005Z,7.05
2022-08-24T23:17:18.902Z,9.50
2022-08-24T23:20:07.867Z,8.57
2022-08-24T23:22:36.712Z,7.45
2022-08-24T23:25:04.897Z,10.23
2022-08-24T23:27:33.001Z,9.20
2022-08-24T23:30:07.257Z,9.35
2022-08-24T23:32:34.919Z,6.97
2022-08-24T23:35:02.713Z,6.47
2022-08-24T23:37:31.954Z,10.20
2022-08-24T23:39:59.842Z,6.70
2022-08-24T23:42:27.686Z,9.13
2022-08-24T23:44:55.386Z,7.38
2022-08-24T23:47:23.111Z,7.20
2022-08-24T23:49:51.209Z,8.80
2022-08-24T23:52:28.750Z,8.75
2022-08-24T23:55:05.194Z,12.68
2022-08-24T23:57:45.695Z,9.38
